Time;durP1;ratioP1;P1;durP2;ratioP2;P2;SDS_P1;SDS_P2;PMS_P1;PMS_P2;Temp;Humidity;BMP_temperature;BMP_pressure;BME280_temperature;BME280_humidity;BME280_pressure;Samples;Min_cycle;Max_cycle;Signal;HPM_P1;HPM_P2
2023/06/24 00:00:53;;;;;;;6.65;3.50;;;24.90;80.20;;;;;;7650552;22;82507;-66
2023/06/24 00:03:53;;;;;;;5.32;3.78;;;25.00;78.40;;;;;;7677265;22;80331;-64
2023/06/24 00:06:58;;;;;;;5.15;3.33;;;24.90;79.00;;;;;;7677499;22;80155;-65
2023/06/24 00:09:59;;;;;;;5.83;3.13;;;25.00;79.00;;;;;;7676914;22;80361;-66
2023/06/24 00:13:01;;;;;;;4.70;3.00;;;24.90;78.80;;;;;;7677184;22;80259;-66
2023/06/24 00:16:01;;;;;;;4.43;3.03;;;25.00;78.80;;;;;;7677700;22;80847;-54
2023/06/24 00:19:02;;;;;;;5.45;2.70;;;25.00;78.10;;;;;;7678550;22;80690;-55
2023/06/24 00:22:03;;;;;;;4.25;3.03;;;25.00;77.90;;;;;;7679743;22;81233;-52
2023/06/24 00:25:06;;;;;;;4.68;3.28;;;24.90;77.80;;;;;;7678283;22;80089;-54
2023/06/24 00:28:06;;;;;;;3.35;3.00;;;24.90;78.00;;;;;;7678789;22;81007;-55
2023/06/24 00:31:07;;;;;;;3.63;2.92;;;24.90;77.60;;;;;;7678002;22;80239;-54
2023/06/24 00:34:07;;;;;;;4.45;3.20;;;24.80;77.80;;;;;;7678395;22;81347;-59
2023/06/24 00:37:08;;;;;;;4.70;3.00;;;24.90;77.60;;;;;;7676837;22;80069;-59
2023/06/24 00:40:15;;;;;;;4.25;2.72;;;24.90;77.60;;;;;;7649713;22;83389;-59
2023/06/24 00:43:16;;;;;;;5.70;3.35;;;25.00;77.10;;;;;;7649154;22;87548;-59
2023/06/24 00:46:19;;;;;;;3.38;2.75;;;25.10;76.60;;;;;;7650577;22;82081;-60
2023/06/24 00:49:20;;;;;;;4.07;2.90;;;25.20;76.30;;;;;;7677933;22;80420;-57
2023/06/24 00:52:20;;;;;;;4.13;2.97;;;25.20;76.50;;;;;;7678993;22;80928;-58
2023/06/24 00:55:21;;;;;;;4.30;3.50;;;25.20;75.80;;;;;;7679556;22;80258;-59
2023/06/24 00:58:21;;;;;;;4.03;2.78;;;25.20;75.80;;;;;;7678986;22;81281;-60
2023/06/24 01:01:23;;;;;;;4.90;2.90;;;25.10;75.80;;;;;;7678108;22;80250;-60
2023/06/24 01:04:24;;;;;;;3.70;2.75;;;24.90;75.80;;;;;;7677316;22;80250;-59
2023/06/24 01:07:25;;;;;;;5.70;3.40;;;25.00;76.20;;;;;;7649777;22;80413;-59
2023/06/24 01:10:26;;;;;;;7.55;3.20;;;25.00;75.80;;;;;;7652467;22;81941;-66
2023/06/24 01:13:26;;;;;;;5.07;2.80;;;24.90;76.10;;;;;;7651035;22;81695;-66
2023/06/24 01:16:27;;;;;;;5.78;3.17;;;25.10;75.60;;;;;;7679035;22;80427;-66
2023/06/24 01:19:27;;;;;;;3.88;2.65;;;25.00;75.20;;;;;;7679196;22;80281;-67
2023/06/24 01:22:28;;;;;;;7.22;3.17;;;25.10;74.90;;;;;;7652276;22;82994;-66
2023/06/24 01:25:29;;;;;;;3.78;2.97;;;25.10;75.00;;;;;;7677923;22;80482;-68
2023/06/24 01:28:30;;;;;;;7.70;3.10;;;24.80;75.30;;;;;;7678603;22;81010;-64
2023/06/24 01:31:32;;;;;;;4.75;2.58;;;24.90;75.30;;;;;;7676954;22;80751;-64
2023/06/24 01:34:33;;;;;;;6.18;2.88;;;25.00;75.20;;;;;;7679337;22;80435;-64
2023/06/24 01:37:33;;;;;;;6.15;2.90;;;25.10;74.30;;;;;;7626239;22;82644;-65
2023/06/24 01:40:34;;;;;;;4.22;3.38;;;25.20;73.80;;;;;;7651456;22;83569;-62
2023/06/24 01:43:34;;;;;;;4.15;2.53;;;25.10;73.50;;;;;;7678243;22;80433;-64
2023/06/24 01:46:35;;;;;;;4.75;2.58;;;24.90;74.30;;;;;;7678367;22;83783;-64
2023/06/24 01:49:35;;;;;;;3.97;2.83;;;24.80;74.70;;;;;;7679030;22;80522;-63
2023/06/24 01:52:36;;;;;;;3.50;2.78;;;25.00;74.10;;;;;;7672201;22;80604;-64
2023/06/24 01:55:36;;;;;;;3.78;2.38;;;25.00;73.50;;;;;;7678316;22;80702;-65
2023/06/24 01:58:37;;;;;;;6.82;3.22;;;24.90;73.50;;;;;;7678247;22;80219;-64
2023/06/24 02:01:38;;;;;;;4.60;2.90;;;25.00;73.80;;;;;;7652122;22;83540;-65
2023/06/24 02:04:39;;;;;;;6.80;2.97;;;25.00;73.00;;;;;;7677316;22;80183;-65
2023/06/24 02:07:39;;;;;;;2.97;2.67;;;24.90;73.10;;;;;;7650822;22;81045;-64
2023/06/24 02:10:40;;;;;;;8.20;2.58;;;24.60;73.00;;;;;;7677555;22;83214;-66
2023/06/24 02:13:40;;;;;;;5.93;2.70;;;24.60;74.40;;;;;;7679541;22;80765;-64
2023/06/24 02:16:49;;;;;;;3.30;2.40;;;24.60;73.30;;;;;;7627278;22;83521;-65
2023/06/24 02:19:50;;;;;;;4.88;2.55;;;24.60;73.60;;;;;;7651056;22;82222;-65
2023/06/24 02:22:50;;;;;;;4.25;2.10;;;24.70;74.00;;;;;;7679163;22;80369;-63
2023/06/24 02:25:51;;;;;;;4.32;2.75;;;24.80;73.40;;;;;;7677428;22;80509;-55
2023/06/24 02:28:51;;;;;;;4.13;2.50;;;24.80;73.20;;;;;;7675637;22;80311;-55
2023/06/24 02:31:52;;;;;;;5.78;2.80;;;24.80;72.60;;;;;;7674713;22;80101;-55
2023/06/24 02:34:54;;;;;;;3.97;2.40;;;24.90;72.70;;;;;;7647354;22;83533;-56
2023/06/24 02:37:55;;;;;;;3.58;2.13;;;24.80;73.00;;;;;;7674122;22;80983;-54
2023/06/24 02:40:56;;;;;;;2.88;2.30;;;24.90;72.60;;;;;;7647704;22;83415;-55
2023/06/24 02:43:56;;;;;;;7.95;2.30;;;24.90;72.70;;;;;;7649183;22;81797;-66
2023/06/24 02:46:57;;;;;;;3.75;2.22;;;25.00;72.70;;;;;;7650597;22;83527;-66
2023/06/24 02:49:58;;;;;;;4.68;2.38;;;25.00;72.00;;;;;;7650553;22;81413;-69
2023/06/24 02:52:59;;;;;;;3.85;2.50;;;25.10;72.00;;;;;;7626280;22;82056;-66
2023/06/24 02:56:04;;;;;;;3.83;2.50;;;25.10;71.90;;;;;;7650298;22;81809;-66
2023/06/24 02:59:05;;;;;;;8.43;2.58;;;25.10;72.00;;;;;;7650581;22;81965;-65
2023/06/24 03:02:06;;;;;;;3.33;2.35;;;25.20;72.00;;;;;;7650453;22;82605;-53
2023/06/24 03:05:06;;;;;;;5.38;2.42;;;25.10;71.40;;;;;;7650962;22;82821;-55
2023/06/24 03:08:07;;;;;;;3.35;2.22;;;25.00;72.00;;;;;;7651233;22;80383;-57
2023/06/24 03:11:09;;;;;;;4.72;2.22;;;25.10;71.90;;;;;;7651367;22;83475;-55
2023/06/24 03:14:10;;;;;;;2.95;2.08;;;25.10;71.90;;;;;;7652037;22;83112;-55
2023/06/24 03:17:15;;;;;;;3.95;2.35;;;25.10;71.90;;;;;;7650351;22;85783;-55
2023/06/24 03:20:16;;;;;;;4.47;2.30;;;25.10;71.90;;;;;;7651284;22;81589;-56
2023/06/24 03:23:16;;;;;;;5.03;2.70;;;25.10;72.30;;;;;;7678987;22;80673;-58
2023/06/24 03:26:18;;;;;;;4.28;2.20;;;25.10;71.90;;;;;;7650492;22;81638;-58
2023/06/24 03:29:18;;;;;;;3.50;2.38;;;25.00;71.90;;;;;;7677944;22;80285;-57
2023/06/24 03:32:28;;;;;;;5.20;2.58;;;24.90;72.60;;;;;;7651163;22;83097;-56
2023/06/24 03:35:32;;;;;;;5.22;2.58;;;24.80;72.60;;;;;;7650448;22;81452;-57
2023/06/24 03:38:35;;;;;;;5.05;2.33;;;24.60;74.00;;;;;;7649747;22;81574;-54
2023/06/24 03:41:36;;;;;;;5.82;2.65;;;24.40;74.70;;;;;;7650875;22;83132;-54
2023/06/24 03:44:36;;;;;;;8.10;2.65;;;24.40;74.40;;;;;;7650778;22;81393;-54
2023/06/24 03:47:38;;;;;;;9.02;2.85;;;24.50;74.50;;;;;;7624995;22;83618;-57
2023/06/24 03:50:39;;;;;;;4.60;2.80;;;24.40;74.90;;;;;;7649052;22;81828;-57
2023/06/24 03:53:39;;;;;;;6.82;2.50;;;24.40;75.20;;;;;;7650189;22;83269;-58
2023/06/24 03:56:40;;;;;;;4.50;2.20;;;24.60;74.70;;;;;;7649360;22;83776;-65
2023/06/24 03:59:40;;;;;;;4.57;2.58;;;24.40;75.10;;;;;;7650181;22;83376;-64
2023/06/24 04:02:41;;;;;;;5.07;3.10;;;24.40;75.00;;;;;;7676359;22;80361;-63
2023/06/24 04:05:42;;;;;;;3.00;2.53;;;24.40;75.50;;;;;;7648399;22;82419;-64
2023/06/24 04:08:43;;;;;;;6.97;2.90;;;24.40;75.80;;;;;;7648926;22;83560;-65
2023/06/24 04:11:43;;;;;;;5.38;2.97;;;24.50;75.10;;;;;;7648869;22;83923;-64
2023/06/24 04:14:44;;;;;;;10.35;3.10;;;24.60;75.10;;;;;;7675794;22;80828;-64
2023/06/24 04:17:44;;;;;;;4.10;2.60;;;24.80;74.80;;;;;;7649207;22;82903;-66
2023/06/24 04:20:45;;;;;;;5.60;3.00;;;24.80;74.20;;;;;;7649143;22;83216;-65
2023/06/24 04:23:47;;;;;;;8.57;2.30;;;24.80;74.30;;;;;;7650089;22;82154;-64
2023/06/24 04:26:47;;;;;;;6.03;2.58;;;24.90;74.20;;;;;;7677547;22;80268;-64
2023/06/24 04:29:48;;;;;;;7.57;2.60;;;24.90;74.20;;;;;;7650007;22;82973;-65
2023/06/24 04:32:48;;;;;;;9.98;2.70;;;24.90;74.20;;;;;;7678510;22;80869;-63
2023/06/24 04:35:51;;;;;;;4.93;2.80;;;24.90;74.00;;;;;;7649818;22;82256;-68
2023/06/24 04:38:51;;;;;;;5.53;3.38;;;24.80;74.30;;;;;;7677974;22;80435;-67
2023/06/24 04:41:52;;;;;;;12.60;3.60;;;24.80;74.00;;;;;;7651107;22;83120;-66
2023/06/24 04:44:52;;;;;;;14.10;3.40;;;24.70;74.20;;;;;;7679950;22;80433;-71
2023/06/24 04:47:53;;;;;;;5.97;2.67;;;24.70;74.50;;;;;;7680063;22;80410;-75
2023/06/24 04:50:54;;;;;;;6.20;2.90;;;24.70;73.60;;;;;;7678845;22;80392;-71
2023/06/24 04:53:55;;;;;;;6.55;2.97;;;24.60;74.70;;;;;;7678927;22;80277;-74
2023/06/24 04:56:55;;;;;;;8.27;2.53;;;24.70;74.50;;;;;;7678283;22;81130;-71
2023/06/24 04:59:56;;;;;;;7.53;2.70;;;24.70;74.20;;;;;;7676472;22;80688;-67
2023/06/24 05:02:56;;;;;;;16.98;3.55;;;24.80;74.10;;;;;;7676466;22;80329;-72
2023/06/24 05:05:57;;;;;;;4.72;2.58;;;24.70;74.20;;;;;;7677067;22;80318;-71
2023/06/24 05:08:57;;;;;;;5.68;2.88;;;24.90;74.20;;;;;;7650616;22;83260;-73
2023/06/24 05:11:58;;;;;;;6.80;2.80;;;24.90;73.70;;;;;;7678512;22;80714;-69
2023/06/24 05:14:58;;;;;;;7.80;3.42;;;24.80;73.90;;;;;;7679132;22;80512;-74
2023/06/24 05:17:59;;;;;;;7.50;3.22;;;24.70;74.80;;;;;;7679273;22;80250;-72
2023/06/24 05:20:59;;;;;;;9.00;3.13;;;24.70;75.10;;;;;;7679551;22;80987;-71
2023/06/24 05:24:00;;;;;;;7.78;3.10;;;24.70;75.10;;;;;;7679234;22;80308;-69
2023/06/24 05:27:00;;;;;;;8.25;3.25;;;24.70;75.70;;;;;;7670796;22;81627;-69
2023/06/24 05:30:01;;;;;;;12.30;3.58;;;24.80;75.90;;;;;;7663366;22;81271;-58
2023/06/24 05:33:01;;;;;;;7.00;2.90;;;24.90;75.30;;;;;;7672475;22;80898;-59
2023/06/24 05:36:02;;;;;;;15.00;3.13;;;25.00;75.10;;;;;;7675367;22;80909;-58
2023/06/24 05:39:02;;;;;;;7.85;3.67;;;25.10;75.00;;;;;;7674024;22;80552;-61
2023/06/24 05:42:03;;;;;;;10.63;3.53;;;25.20;74.90;;;;;;7649193;22;83056;-60
2023/06/24 05:45:03;;;;;;;8.55;4.25;;;25.20;75.40;;;;;;7679038;22;80612;-60
2023/06/24 05:48:04;;;;;;;8.68;3.60;;;25.30;75.30;;;;;;7677809;22;80425;-59
2023/06/24 05:51:05;;;;;;;10.45;4.05;;;25.30;75.80;;;;;;7677148;22;80957;-58
2023/06/24 05:54:07;;;;;;;9.82;3.83;;;25.40;76.80;;;;;;7677164;22;80375;-60
2023/06/24 05:57:09;;;;;;;7.25;3.47;;;25.40;76.70;;;;;;7678328;22;81180;-59
2023/06/24 06:00:09;;;;;;;12.55;4.70;;;25.50;76.30;;;;;;7678539;22;80557;-58
2023/06/24 06:03:13;;;;;;;9.00;5.45;;;25.60;77.00;;;;;;7679871;22;80751;-59
2023/06/24 06:06:13;;;;;;;6.88;4.13;;;25.70;76.70;;;;;;7678442;22;80204;-58
2023/06/24 06:09:14;;;;;;;11.40;4.97;;;25.70;76.70;;;;;;7678571;22;80458;-58
2023/06/24 06:12:14;;;;;;;7.05;4.28;;;25.70;76.30;;;;;;7672015;22;80863;-58
2023/06/24 06:15:15;;;;;;;10.88;4.22;;;25.70;76.00;;;;;;7675441;22;84284;-57
2023/06/24 06:18:15;;;;;;;8.38;4.32;;;25.70;75.90;;;;;;7677438;22;80623;-59
2023/06/24 06:21:16;;;;;;;9.63;4.07;;;25.70;75.70;;;;;;7676939;22;81397;-58
2023/06/24 06:24:17;;;;;;;7.93;4.00;;;25.70;75.60;;;;;;7678714;22;80225;-60
2023/06/24 06:27:17;;;;;;;11.55;4.05;;;25.70;75.70;;;;;;7675204;22;80401;-62
2023/06/24 06:30:18;;;;;;;6.03;4.05;;;25.70;75.60;;;;;;7674173;22;80550;-61
2023/06/24 06:33:19;;;;;;;10.98;4.70;;;25.60;75.70;;;;;;7677068;22;80455;-62
2023/06/24 06:36:20;;;;;;;11.40;4.35;;;25.30;76.80;;;;;;7675628;22;80459;-63
2023/06/24 06:39:20;;;;;;;11.57;4.97;;;25.30;76.90;;;;;;7676950;22;80735;-64
2023/06/24 06:42:21;;;;;;;7.45;4.63;;;25.30;77.30;;;;;;7674960;22;80838;-63
2023/06/24 06:45:22;;;;;;;16.27;4.80;;;25.30;77.10;;;;;;7672827;22;81279;-55
2023/06/24 06:48:22;;;;;;;7.30;4.35;;;25.50;77.10;;;;;;7649849;22;81951;-62
2023/06/24 06:51:24;;;;;;;9.63;4.88;;;25.50;76.80;;;;;;7673428;22;80446;-61
2023/06/24 06:54:24;;;;;;;8.38;4.78;;;25.30;77.50;;;;;;7677951;22;80549;-60
2023/06/24 06:57:25;;;;;;;7.70;4.70;;;25.20;77.80;;;;;;7676230;22;81338;-61
2023/06/24 07:00:25;;;;;;;14.27;5.03;;;25.20;78.00;;;;;;7675278;22;80273;-67
2023/06/24 07:03:27;;;;;;;7.18;4.13;;;25.30;77.90;;;;;;7675497;22;80278;-65
2023/06/24 07:06:28;;;;;;;7.68;4.63;;;25.40;77.50;;;;;;7676418;22;80441;-65
2023/06/24 07:09:28;;;;;;;12.38;4.57;;;25.40;77.40;;;;;;7649284;22;80602;-66
2023/06/24 07:12:29;;;;;;;9.80;4.85;;;25.40;77.40;;;;;;7673078;22;80615;-66
2023/06/24 07:15:29;;;;;;;13.68;6.38;;;25.30;78.20;;;;;;7675011;22;80330;-64
2023/06/24 07:18:30;;;;;;;15.05;5.80;;;25.30;78.70;;;;;;7673058;22;81320;-58
2023/06/24 07:21:31;;;;;;;10.52;5.85;;;25.30;78.80;;;;;;7677641;22;80505;-58
2023/06/24 07:24:31;;;;;;;13.65;6.75;;;25.30;79.10;;;;;;7675474;22;81322;-59
2023/06/24 07:27:32;;;;;;;11.75;6.50;;;25.30;79.20;;;;;;7673784;22;81266;-63
2023/06/24 07:30:32;;;;;;;13.50;6.57;;;25.10;79.80;;;;;;7671925;22;80635;-62
2023/06/24 07:33:33;;;;;;;11.82;6.15;;;25.20;79.80;;;;;;7676445;22;80711;-61
2023/06/24 07:36:33;;;;;;;8.45;5.93;;;25.30;79.40;;;;;;7671779;22;80539;-64
2023/06/24 07:39:34;;;;;;;12.80;5.43;;;25.40;79.40;;;;;;7648619;22;80844;-66
2023/06/24 07:42:34;;;;;;;7.93;5.82;;;25.50;78.60;;;;;;7677023;22;80360;-64
2023/06/24 07:45:35;;;;;;;11.82;7.32;;;25.70;78.50;;;;;;7675707;22;80492;-67
2023/06/24 07:48:35;;;;;;;14.75;6.63;;;25.50;79.20;;;;;;7675732;22;80608;-70
2023/06/24 07:51:36;;;;;;;8.70;6.15;;;25.60;79.20;;;;;;7676368;22;80674;-69
2023/06/24 07:54:36;;;;;;;10.57;6.80;;;25.60;78.80;;;;;;7677432;22;80284;-72
2023/06/24 07:57:37;;;;;;;11.38;7.00;;;25.70;78.60;;;;;;7649516;22;83444;-69
2023/06/24 08:00:37;;;;;;;14.45;7.70;;;25.70;78.20;;;;;;7670855;22;81488;-70
2023/06/24 08:03:38;;;;;;;13.63;8.25;;;25.70;78.00;;;;;;7675045;22;80575;-76
2023/06/24 08:06:38;;;;;;;11.68;8.38;;;25.80;77.90;;;;;;7674465;22;80753;-75
2023/06/24 08:09:39;;;;;;;10.30;7.88;;;25.80;77.50;;;;;;7673798;22;80412;-76
2023/06/24 08:12:39;;;;;;;16.60;9.15;;;25.90;77.30;;;;;;7676459;22;80141;-76
2023/06/24 08:15:40;;;;;;;12.65;8.35;;;25.90;76.80;;;;;;7672227;22;81318;-72
2023/06/24 08:18:41;;;;;;;14.13;9.27;;;25.90;76.80;;;;;;7676586;22;80592;-74
2023/06/24 08:21:41;;;;;;;17.38;9.05;;;25.90;76.70;;;;;;7678500;22;80419;-73
2023/06/24 08:24:42;;;;;;;14.32;8.75;;;25.90;76.60;;;;;;7671415;22;80279;-73
2023/06/24 08:27:46;;;;;;;17.65;9.68;;;25.90;76.60;;;;;;7675249;22;80566;-71
2023/06/24 08:30:46;;;;;;;17.38;9.50;;;25.90;76.50;;;;;;7676870;22;80205;-71
2023/06/24 08:33:47;;;;;;;26.23;10.20;;;25.90;76.30;;;;;;7675917;22;80369;-59
2023/06/24 08:36:47;;;;;;;21.25;11.57;;;25.90;76.70;;;;;;7672469;22;83585;-59
2023/06/24 08:39:51;;;;;;;18.10;10.85;;;25.90;77.40;;;;;;7670632;22;83254;-58
2023/06/24 08:42:51;;;;;;;16.65;10.13;;;25.90;77.50;;;;;;7676175;22;83497;-59
2023/06/24 08:45:52;;;;;;;15.82;10.25;;;25.90;77.30;;;;;;7674965;22;83270;-59
2023/06/24 08:48:52;;;;;;;14.07;9.38;;;25.90;77.50;;;;;;7673690;22;82778;-58
2023/06/24 08:51:53;;;;;;;13.65;9.40;;;25.90;77.10;;;;;;7675287;22;83337;-63
2023/06/24 08:54:53;;;;;;;13.90;8.88;;;25.90;76.70;;;;;;7675899;22;80798;-62
2023/06/24 08:57:54;;;;;;;13.10;8.77;;;25.90;76.50;;;;;;7679475;22;80364;-64
2023/06/24 09:00:54;;;;;;;15.25;9.70;;;25.90;76.00;;;;;;7678698;22;80224;-64
2023/06/24 09:03:55;;;;;;;16.02;8.70;;;25.90;75.90;;;;;;7679928;22;80150;-64
2023/06/24 09:06:55;;;;;;;13.57;10.07;;;25.90;75.80;;;;;;7676138;22;81291;-65
2023/06/24 09:09:56;;;;;;;14.43;9.60;;;25.90;76.10;;;;;;7677080;22;82994;-64
2023/06/24 09:12:56;;;;;;;14.43;10.18;;;26.00;76.80;;;;;;7682482;22;83418;-63
2023/06/24 09:15:57;;;;;;;18.55;11.18;;;26.00;76.10;;;;;;7650479;22;83449;-65
2023/06/24 09:18:57;;;;;;;21.27;9.65;;;26.00;76.30;;;;;;7676290;22;83585;-64
2023/06/24 09:21:58;;;;;;;18.92;9.82;;;26.00;76.80;;;;;;7677181;22;82948;-61
2023/06/24 09:24:59;;;;;;;23.75;11.73;;;26.00;76.60;;;;;;7680280;22;80276;-63
2023/06/24 09:27:59;;;;;;;26.45;10.02;;;26.00;76.10;;;;;;7676765;22;83158;-64
2023/06/24 09:31:00;;;;;;;21.30;8.85;;;25.90;76.20;;;;;;7676671;22;83179;-61
2023/06/24 09:34:00;;;;;;;21.10;8.57;;;26.00;75.30;;;;;;7677431;22;83451;-61
2023/06/24 09:37:02;;;;;;;14.90;8.13;;;26.00;75.40;;;;;;7676323;22;80169;-60
2023/06/24 09:40:05;;;;;;;13.02;7.70;;;26.00;75.00;;;;;;7675832;22;80424;-60
2023/06/24 09:43:05;;;;;;;12.10;6.63;;;26.00;74.30;;;;;;7678642;22;80405;-59
2023/06/24 09:46:06;;;;;;;12.32;7.10;;;25.90;73.40;;;;;;7677206;22;80860;-59
2023/06/24 09:49:07;;;;;;;9.50;6.70;;;25.90;72.50;;;;;;7676894;22;80393;-60
2023/06/24 09:52:07;;;;;;;12.52;8.48;;;25.90;72.30;;;;;;7666066;22;81186;-65
2023/06/24 09:55:08;;;;;;;9.02;6.38;;;25.90;73.30;;;;;;7674331;22;80859;-63
2023/06/24 09:58:09;;;;;;;14.68;6.68;;;25.80;72.20;;;;;;7672879;22;80466;-67
2023/06/24 10:01:09;;;;;;;12.30;6.25;;;25.80;72.10;;;;;;7674402;22;80392;-67
2023/06/24 10:04:10;;;;;;;10.55;7.15;;;25.90;72.50;;;;;;7676079;22;81787;-67
2023/06/24 10:07:11;;;;;;;11.63;7.10;;;25.90;72.60;;;;;;7676174;22;80368;-62
2023/06/24 10:10:11;;;;;;;8.15;6.13;;;25.90;72.50;;;;;;7674997;22;80907;-63
2023/06/24 10:13:12;;;;;;;12.15;7.03;;;25.90;72.70;;;;;;7648100;22;81487;-69
2023/06/24 10:16:12;;;;;;;11.20;6.28;;;26.00;72.70;;;;;;7665566;22;81202;-68
2023/06/24 10:19:13;;;;;;;9.80;5.43;;;25.90;73.20;;;;;;7665356;22;80710;-65
2023/06/24 10:22:13;;;;;;;8.70;5.88;;;25.90;73.30;;;;;;7652578;22;80606;-66
2023/06/24 10:25:14;;;;;;;8.93;5.68;;;25.90;73.10;;;;;;7670480;22;80433;-67
2023/06/24 10:28:15;;;;;;;11.13;6.07;;;26.00;72.60;;;;;;7672069;22;80735;-69
2023/06/24 10:31:15;;;;;;;16.90;7.18;;;25.90;72.50;;;;;;7672763;22;84797;-63
2023/06/24 10:34:16;;;;;;;8.23;5.55;;;25.90;72.50;;;;;;7647914;22;80406;-75
2023/06/24 10:37:16;;;;;;;26.17;6.47;;;25.90;76.80;;;;;;7674915;22;80249;-63
2023/06/24 10:40:17;;;;;;;14.07;6.95;;;26.00;72.40;;;;;;7637169;22;80832;-65
2023/06/24 10:43:18;;;;;;;9.77;6.05;;;26.00;71.90;;;;;;7669844;22;80433;-68
2023/06/24 10:46:20;;;;;;;11.52;5.53;;;26.00;71.70;;;;;;7675577;22;80222;-71
2023/06/24 10:49:20;;;;;;;31.42;5.75;;;26.00;72.00;;;;;;7674029;22;80288;-61
2023/06/24 10:52:21;;;;;;;15.70;5.72;;;26.20;72.00;;;;;;7672424;22;81972;-63
2023/06/24 10:55:22;;;;;;;10.63;5.97;;;26.10;72.30;;;;;;7675158;22;80742;-68
2023/06/24 10:58:22;;;;;;;11.50;5.22;;;26.10;72.50;;;;;;7650705;22;80362;-65
2023/06/24 11:01:23;;;;;;;9.90;5.50;;;26.20;71.70;;;;;;7675990;22;80857;-77
2023/06/24 11:04:23;;;;;;;10.65;5.85;;;26.20;73.60;;;;;;7677615;22;80992;-68
2023/06/24 11:07:24;;;;;;;18.00;6.03;;;25.80;84.10;;;;;;7677043;22;80946;-68
2023/06/24 11:10:24;;;;;;;9.55;5.60;;;25.90;77.00;;;;;;7643887;22;81677;-59
2023/06/24 11:13:25;;;;;;;7.15;5.28;;;26.00;76.30;;;;;;7669537;22;79990;-63
2023/06/24 11:16:25;;;;;;;11.43;5.80;;;26.10;76.00;;;;;;7674558;22;86902;-64
2023/06/24 11:19:26;;;;;;;8.18;6.18;;;26.10;76.00;;;;;;7675787;22;81200;-59
2023/06/24 11:22:26;;;;;;;11.07;6.53;;;26.00;75.60;;;;;;7675357;22;80526;-72
2023/06/24 11:25:27;;;;;;;7.55;5.85;;;25.90;75.40;;;;;;7672375;22;81248;-65
2023/06/24 11:28:27;;;;;;;14.50;7.30;;;25.90;76.20;;;;;;7669250;22;80450;-66
2023/06/24 11:31:28;;;;;;;14.23;7.03;;;25.90;76.70;;;;;;7670904;22;80372;-63
2023/06/24 11:34:28;;;;;;;9.60;6.72;;;25.80;77.20;;;;;;7668406;22;80699;-64
2023/06/24 11:37:29;;;;;;;9.93;7.05;;;25.70;76.70;;;;;;7672552;22;80841;-64
2023/06/24 11:40:29;;;;;;;12.57;6.63;;;25.70;77.70;;;;;;7675593;22;80553;-64
2023/06/24 11:43:30;;;;;;;10.10;6.18;;;25.60;77.50;;;;;;7668182;22;80940;-67
2023/06/24 11:46:35;;;;;;;8.55;5.25;;;25.60;77.10;;;;;;7673627;22;80887;-68
2023/06/24 11:49:35;;;;;;;9.03;5.43;;;25.70;76.80;;;;;;7675138;22;81004;-66
2023/06/24 11:52:36;;;;;;;8.65;5.13;;;25.80;77.50;;;;;;7676064;22;80377;-65
2023/06/24 11:55:37;;;;;;;11.10;4.88;;;25.80;74.90;;;;;;7647647;22;81510;-65
2023/06/24 11:58:37;;;;;;;9.50;5.25;;;25.90;74.80;;;;;;7671789;22;80470;-68
2023/06/24 12:01:39;;;;;;;7.22;4.30;;;25.90;75.70;;;;;;7672324;22;80697;-68
2023/06/24 12:04:40;;;;;;;8.65;5.93;;;25.90;75.50;;;;;;7673668;22;81286;-67
2023/06/24 12:07:41;;;;;;;12.20;5.93;;;25.90;75.00;;;;;;7666400;22;81010;-64
2023/06/24 12:10:41;;;;;;;9.07;5.60;;;25.90;75.40;;;;;;7675796;22;81023;-67
2023/06/24 12:13:42;;;;;;;9.60;6.85;;;25.90;75.70;;;;;;7670600;22;80493;-75
2023/06/24 12:16:42;;;;;;;7.63;5.80;;;25.80;76.00;;;;;;7638447;22;81389;-67
2023/06/24 12:19:43;;;;;;;189.02;109.47;;;25.80;77.00;;;;;;7644710;22;83227;-66
2023/06/24 12:22:43;;;;;;;200.52;117.22;;;25.80;77.00;;;;;;7664260;22;86727;-65
2023/06/24 12:25:44;;;;;;;295.35;169.00;;;25.90;76.90;;;;;;7666438;22;85297;-73
2023/06/24 12:28:44;;;;;;;391.45;222.98;;;25.90;77.30;;;;;;7665818;22;85791;-76
2023/06/24 12:31:45;;;;;;;466.40;271.65;;;25.90;77.80;;;;;;7669311;22;85612;-70
2023/06/24 12:34:45;;;;;;;410.98;229.32;;;25.90;79.00;;;;;;7669283;22;85880;-67
2023/06/24 12:37:47;;;;;;;285.23;156.57;;;25.90;77.50;;;;;;7668620;22;85986;-67
2023/06/24 12:40:48;;;;;;;226.48;126.88;;;25.90;77.70;;;;;;7667490;22;85633;-66
2023/06/24 12:43:48;;;;;;;64.97;34.70;;;25.90;77.90;;;;;;7669244;22;85492;-64
2023/06/24 12:46:49;;;;;;;74.78;41.20;;;25.90;76.90;;;;;;7672298;22;84351;-67
2023/06/24 12:49:49;;;;;;;127.32;74.22;;;25.90;79.00;;;;;;7673008;22;83476;-62
2023/06/24 12:52:50;;;;;;;79.38;47.42;;;25.90;78.30;;;;;;7675244;22;83049;-61
2023/06/24 12:55:50;;;;;;;66.28;30.60;;;25.90;76.90;;;;;;7674813;22;83740;-70
2023/06/24 12:58:51;;;;;;;35.90;21.40;;;25.90;76.00;;;;;;7675345;22;83999;-67
2023/06/24 13:01:51;;;;;;;33.60;19.23;;;25.90;75.40;;;;;;7672854;22;83663;-62
2023/06/24 13:04:52;;;;;;;27.92;16.92;;;25.60;74.70;;;;;;7675428;22;83027;-65
2023/06/24 13:07:52;;;;;;;23.15;15.23;;;25.50;77.60;;;;;;7673961;22;83075;-65
2023/06/24 13:10:53;;;;;;;20.33;13.00;;;25.60;77.40;;;;;;7669325;22;83640;-65
2023/06/24 13:13:53;;;;;;;15.27;9.23;;;25.60;76.30;;;;;;7668537;22;83029;-64
2023/06/24 13:16:54;;;;;;;12.15;7.45;;;25.70;75.00;;;;;;7675424;22;82837;-65
2023/06/24 13:19:55;;;;;;;14.23;7.18;;;25.60;73.00;;;;;;7676859;22;82868;-64
2023/06/24 13:22:55;;;;;;;13.55;6.13;;;25.60;72.30;;;;;;7677768;22;86139;-63
2023/06/24 13:25:56;;;;;;;10.82;6.00;;;25.60;71.70;;;;;;7652237;22;80974;-70
2023/06/24 13:28:57;;;;;;;10.35;6.38;;;25.50;73.20;;;;;;7676445;22;80285;-71
2023/06/24 13:31:57;;;;;;;9.75;6.50;;;25.50;73.80;;;;;;7678106;22;80544;-68
2023/06/24 13:34:58;;;;;;;9.27;6.07;;;25.60;74.00;;;;;;7677042;22;80162;-71
2023/06/24 13:37:58;;;;;;;9.90;5.55;;;25.60;73.30;;;;;;7647438;22;80834;-72
2023/06/24 13:40:59;;;;;;;12.65;5.15;;;25.70;73.40;;;;;;7672965;22;80548;-72
2023/06/24 13:44:00;;;;;;;7.10;5.15;;;25.70;73.60;;;;;;7676883;22;80596;-61
2023/06/24 13:47:01;;;;;;;8.35;5.47;;;25.70;73.40;;;;;;7675698;22;80862;-62
2023/06/24 13:50:02;;;;;;;8.98;4.65;;;25.70;73.30;;;;;;7676399;22;81976;-63
2023/06/24 13:53:03;;;;;;;7.45;4.97;;;25.70;72.90;;;;;;7677163;22;80577;-62
2023/06/24 13:56:03;;;;;;;8.48;4.82;;;25.70;72.60;;;;;;7673822;22;80321;-62
2023/06/24 13:59:04;;;;;;;10.30;5.35;;;25.70;72.30;;;;;;7673289;22;80766;-61
2023/06/24 14:02:05;;;;;;;6.68;4.82;;;25.70;73.10;;;;;;7679245;22;80727;-59
2023/06/24 14:05:05;;;;;;;7.40;5.43;;;25.70;73.20;;;;;;7679177;22;81434;-58
2023/06/24 14:08:06;;;;;;;6.80;4.85;;;25.60;73.40;;;;;;7678578;22;80025;-61
2023/06/24 14:11:06;;;;;;;8.00;4.85;;;25.70;73.80;;;;;;7677786;22;80927;-59
2023/06/24 14:14:07;;;;;;;5.88;4.18;;;25.70;73.90;;;;;;7676457;22;81665;-59
2023/06/24 14:17:12;;;;;;;5.35;4.68;;;25.70;73.80;;;;;;7678540;22;80387;-59
2023/06/24 14:20:12;;;;;;;13.32;5.03;;;25.70;73.80;;;;;;7649414;22;80658;-60
2023/06/24 14:23:13;;;;;;;10.70;5.18;;;25.70;73.40;;;;;;7677230;22;80909;-58
2023/06/24 14:26:13;;;;;;;6.68;4.63;;;25.70;73.40;;;;;;7675447;22;80850;-59
2023/06/24 14:29:14;;;;;;;7.82;4.88;;;25.70;73.50;;;;;;7677548;22;80241;-60
2023/06/24 14:32:14;;;;;;;6.22;4.18;;;25.70;73.20;;;;;;7677689;22;80856;-63
2023/06/24 14:35:15;;;;;;;5.07;3.95;;;25.70;73.10;;;;;;7678052;22;80401;-64
2023/06/24 14:38:15;;;;;;;5.10;3.92;;;25.70;73.40;;;;;;7637928;22;80739;-59
2023/06/24 14:41:16;;;;;;;6.38;4.20;;;25.80;73.50;;;;;;7659156;22;80742;-59
2023/06/24 14:44:17;;;;;;;7.07;4.40;;;25.80;73.70;;;;;;7659388;22;80661;-60
2023/06/24 14:47:17;;;;;;;7.13;4.32;;;25.80;73.70;;;;;;7659841;22;80957;-59
2023/06/24 14:50:18;;;;;;;9.73;5.15;;;25.80;73.40;;;;;;7633403;22;80581;-60
2023/06/24 14:53:19;;;;;;;11.77;5.25;;;25.70;73.00;;;;;;7659916;22;80756;-58
2023/06/24 14:56:20;;;;;;;8.25;4.90;;;25.70;73.10;;;;;;7661044;22;80465;-59
2023/06/24 14:59:20;;;;;;;8.90;5.03;;;25.70;73.10;;;;;;7660268;22;80825;-59
2023/06/24 15:02:21;;;;;;;9.00;5.68;;;25.60;72.90;;;;;;7660984;22;81112;-58
2023/06/24 15:05:21;;;;;;;8.05;5.97;;;25.60;72.90;;;;;;7658249;22;81091;-58
2023/06/24 15:08:25;;;;;;;9.55;5.90;;;25.60;73.00;;;;;;7659788;22;80861;-59
2023/06/24 15:11:25;;;;;;;8.52;5.32;;;25.50;73.40;;;;;;7661873;22;81416;-60
2023/06/24 15:14:26;;;;;;;7.35;5.40;;;25.50;74.10;;;;;;7606709;22;83135;-59
2023/06/24 15:17:27;;;;;;;10.93;5.45;;;25.50;74.00;;;;;;7661746;22;81861;-63
2023/06/24 15:20:27;;;;;;;10.25;5.55;;;25.50;74.10;;;;;;7658993;22;80757;-64
2023/06/24 15:23:28;;;;;;;9.35;5.95;;;25.50;74.30;;;;;;7654543;22;80467;-63
2023/06/24 15:26:28;;;;;;;8.02;5.70;;;25.50;74.10;;;;;;7657571;22;81215;-63
2023/06/24 15:29:29;;;;;;;7.68;5.22;;;25.50;74.10;;;;;;7657299;22;80783;-64
2023/06/24 15:32:29;;;;;;;7.72;5.68;;;25.50;73.30;;;;;;7664748;22;80946;-66